createdAt,value
2023-02-16T00:01:51.813Z,10.40
2023-02-16T00:04:21.143Z,9.70
2023-02-16T00:06:50.345Z,10.20
2023-02-16T00:09:18.731Z,10.30
2023-02-16T00:12:05.412Z,10.10
2023-02-16T00:14:35.944Z,10.27
2023-02-16T00:17:04.966Z,10.13
2023-02-16T00:19:37.017Z,9.83
2023-02-16T00:22:06.599Z,9.60
2023-02-16T00:24:34.608Z,10.37
2023-02-16T00:27:03.115Z,10.17
2023-02-16T00:29:33.536Z,10.00
2023-02-16T00:32:05.103Z,9.90
2023-02-16T00:34:35.117Z,11.00
2023-02-16T00:37:05.077Z,10.40
2023-02-16T00:39:33.784Z,10.60
2023-02-16T00:42:03.849Z,10.07
2023-02-16T00:44:54.714Z,10.40
2023-02-16T00:47:31.123Z,10.40
2023-02-16T00:49:59.678Z,11.20
2023-02-16T00:52:34.678Z,10.03
2023-02-16T00:55:05.331Z,10.50
2023-02-16T00:57:36.657Z,9.87
2023-02-16T01:00:09.543Z,9.60
2023-02-16T01:02:38.784Z,10.37
2023-02-16T01:05:07.372Z,9.98
2023-02-16T01:07:52.932Z,9.93
2023-02-16T01:10:39.517Z,10.37
2023-02-16T01:13:07.472Z,9.83
2023-02-16T01:15:35.850Z,10.50
2023-02-16T01:18:05.237Z,10.30
2023-02-16T01:20:35.303Z,10.67
2023-02-16T01:23:03.393Z,9.97
2023-02-16T01:25:31.526Z,10.60
2023-02-16T01:27:59.511Z,10.20
2023-02-16T01:30:27.937Z,10.70
2023-02-16T01:32:56.428Z,11.40
2023-02-16T01:35:31.718Z,10.17
2023-02-16T01:37:59.683Z,11.17
2023-02-16T01:40:39.317Z,10.13
2023-02-16T01:43:18.489Z,10.80
2023-02-16T01:45:50.928Z,10.40
2023-02-16T01:48:23.011Z,9.60
2023-02-16T01:51:00.026Z,9.53
2023-02-16T01:53:34.668Z,10.00
2023-02-16T01:56:07.858Z,10.00
2023-02-16T01:58:41.708Z,9.40
2023-02-16T02:01:38.177Z,9.40
2023-02-16T02:04:35.880Z,10.93
2023-02-16T02:07:05.194Z,11.20
2023-02-16T02:09:39.071Z,9.97
2023-02-16T02:12:14.901Z,10.03
2023-02-16T02:14:43.653Z,10.30
2023-02-16T02:17:15.463Z,9.47
2023-02-16T02:19:51.893Z,8.77
2023-02-16T02:23:05.097Z,10.03
2023-02-16T02:26:11.696Z,9.80
2023-02-16T02:28:48.092Z,9.83
2023-02-16T02:31:29.912Z,9.70
2023-02-16T02:34:05.833Z,9.73
2023-02-16T02:36:40.472Z,10.10
2023-02-16T02:39:22.224Z,9.90
2023-02-16T02:42:06.437Z,9.97
2023-02-16T02:44:41.234Z,10.20
2023-02-16T02:47:09.643Z,10.37
2023-02-16T02:49:37.555Z,10.67
2023-02-16T02:52:05.897Z,10.67
2023-02-16T02:54:55.187Z,10.10
2023-02-16T02:57:44.384Z,9.67
2023-02-16T03:00:36.658Z,10.53
2023-02-16T03:03:08.692Z,9.23
2023-02-16T03:05:39.295Z,10.70
2023-02-16T03:08:15.046Z,9.40
2023-02-16T03:11:03.043Z,9.63
2023-02-16T03:13:34.808Z,10.10
2023-02-16T03:16:08.579Z,9.37
2023-02-16T03:18:55.678Z,10.17
2023-02-16T03:21:41.831Z,9.47
2023-02-16T03:24:32.751Z,9.57
2023-02-16T03:27:18.143Z,10.47
2023-02-16T03:29:49.272Z,9.90
2023-02-16T03:32:18.837Z,9.73
2023-02-16T03:34:46.949Z,9.13
2023-02-16T03:37:15.681Z,9.40
2023-02-16T03:39:58.009Z,9.80
2023-02-16T03:42:26.065Z,10.30
2023-02-16T03:44:54.248Z,8.80
2023-02-16T03:47:23.513Z,9.10
2023-02-16T03:49:51.466Z,10.13
2023-02-16T03:52:19.392Z,10.00
2023-02-16T03:54:47.422Z,9.60
2023-02-16T03:57:15.346Z,9.20
2023-02-16T03:59:43.255Z,8.77
2023-02-16T04:02:11.238Z,10.07
2023-02-16T04:04:40.596Z,10.03
2023-02-16T04:07:08.546Z,8.80
2023-02-16T04:09:36.512Z,9.50
2023-02-16T04:12:22.424Z,8.80
2023-02-16T04:14:50.346Z,9.60
2023-02-16T04:17:18.393Z,8.40
2023-02-16T04:19:47.645Z,8.07
2023-02-16T04:22:15.565Z,8.53
2023-02-16T04:24:43.528Z,9.20
2023-02-16T04:27:11.526Z,8.80
2023-02-16T04:29:39.474Z,10.20
2023-02-16T04:32:07.611Z,8.77
2023-02-16T04:34:35.607Z,8.40
2023-02-16T04:37:05.767Z,8.77
2023-02-16T04:39:33.781Z,8.40
2023-02-16T04:42:01.885Z,8.73
2023-02-16T04:44:29.829Z,8.80
2023-02-16T04:46:57.787Z,8.70
2023-02-16T04:49:25.777Z,8.07
2023-02-16T04:51:53.664Z,8.50
2023-02-16T04:54:23.496Z,8.37
2023-02-16T04:56:51.421Z,8.30
2023-02-16T04:59:19.478Z,7.87
2023-02-16T05:01:47.412Z,8.13
2023-02-16T05:04:16.503Z,7.63
2023-02-16T05:06:44.612Z,8.60
2023-02-16T05:09:12.834Z,8.10
2023-02-16T05:11:59.535Z,8.60
2023-02-16T05:14:45.064Z,8.60
2023-02-16T05:17:15.689Z,8.63
2023-02-16T05:19:45.774Z,8.17
2023-02-16T05:22:14.516Z,8.70
2023-02-16T05:24:43.372Z,7.30
2023-02-16T05:27:14.853Z,7.00
2023-02-16T05:29:42.900Z,8.10
2023-02-16T05:32:11.178Z,9.03
2023-02-16T05:34:39.109Z,7.87
2023-02-16T05:37:07.290Z,7.60
2023-02-16T05:39:35.242Z,7.53
2023-02-16T05:42:03.362Z,8.13
2023-02-16T05:44:32.865Z,7.90
2023-02-16T05:47:00.955Z,7.13
2023-02-16T05:49:28.896Z,8.20
2023-02-16T05:51:57.137Z,8.00
2023-02-16T05:54:25.382Z,7.73
2023-02-16T05:56:53.769Z,7.00
2023-02-16T05:59:21.801Z,8.27
2023-02-16T06:01:52.405Z,7.67
2023-02-16T06:04:22.002Z,7.90
2023-02-16T06:06:53.377Z,7.53
2023-02-16T06:09:21.679Z,7.30
2023-02-16T06:11:52.313Z,8.20
2023-02-16T06:14:22.129Z,8.90
2023-02-16T06:16:52.413Z,7.40
2023-02-16T06:19:21.336Z,7.27
2023-02-16T06:21:49.395Z,7.23
2023-02-16T06:24:17.422Z,5.17
2023-02-16T06:26:45.379Z,7.40
2023-02-16T06:30:04.302Z,7.83
2023-02-16T06:32:33.779Z,7.83
2023-02-16T06:39:08.946Z,6.93
2023-02-16T06:41:40.126Z,8.20
2023-02-16T06:44:12.351Z,7.20
2023-02-16T06:46:40.944Z,6.72
2023-02-16T06:49:12.810Z,8.70
2023-02-16T06:51:41.168Z,7.70
2023-02-16T06:54:09.378Z,7.23
2023-02-16T06:56:38.162Z,7.40
2023-02-16T06:59:06.890Z,7.40
2023-02-16T07:01:35.039Z,7.17
2023-02-16T07:04:03.180Z,7.20
2023-02-16T07:06:32.573Z,7.77
2023-02-16T07:09:01.168Z,7.70
2023-02-16T07:11:29.271Z,7.77
2023-02-16T07:13:57.384Z,8.10
2023-02-16T07:16:25.972Z,7.20
2023-02-16T07:18:56.884Z,7.50
2023-02-16T07:21:24.902Z,7.90
2023-02-16T07:23:54.239Z,7.90
2023-02-16T07:26:22.345Z,7.33
2023-02-16T07:28:50.434Z,8.30
2023-02-16T07:31:18.626Z,7.30
2023-02-16T07:33:46.762Z,7.83
2023-02-16T07:36:20.920Z,8.00
2023-02-16T07:38:48.944Z,7.87
2023-02-16T07:41:18.272Z,7.87
2023-02-16T07:43:46.325Z,7.50
2023-02-16T07:46:14.656Z,8.10
2023-02-16T07:48:42.723Z,8.13
2023-02-16T07:51:10.751Z,7.27
2023-02-16T07:54:12.631Z,7.70
2023-02-16T07:56:42.478Z,7.43
2023-02-16T08:01:53.012Z,8.23
2023-02-16T08:04:48.834Z,8.33
2023-02-16T08:07:18.817Z,8.17
2023-02-16T08:09:46.824Z,7.60
2023-02-16T08:12:17.262Z,7.60
2023-02-16T08:14:47.121Z,8.30
2023-02-16T08:17:15.190Z,7.60
2023-02-16T08:19:43.300Z,8.60
2023-02-16T08:22:12.219Z,7.80
2023-02-16T08:24:40.184Z,8.10
2023-02-16T08:27:08.147Z,8.70
2023-02-16T08:29:37.810Z,8.27
2023-02-16T08:32:07.756Z,8.47
2023-02-16T08:34:36.706Z,7.97
2023-02-16T08:37:04.695Z,8.70
2023-02-16T08:39:35.098Z,7.10
2023-02-16T08:42:03.839Z,8.57
2023-02-16T08:44:32.077Z,7.97
2023-02-16T08:47:02.710Z,8.50
2023-02-16T08:49:30.721Z,8.57
2023-02-16T08:52:01.423Z,8.53
2023-02-16T08:54:32.335Z,8.70
2023-02-16T08:57:02.805Z,8.77
2023-02-16T08:59:31.655Z,8.67
2023-02-16T09:02:01.492Z,9.30
2023-02-16T09:04:29.934Z,8.80
2023-02-16T09:06:59.554Z,8.07
2023-02-16T09:09:28.584Z,8.10
2023-02-16T09:11:57.677Z,8.20
2023-02-16T09:14:26.422Z,8.60
2023-02-16T09:16:54.513Z,7.77
2023-02-16T09:19:24.694Z,7.97
2023-02-16T09:21:56.249Z,8.17
2023-02-16T09:24:25.342Z,8.33
2023-02-16T09:26:53.390Z,7.90
2023-02-16T09:29:21.376Z,7.80
2023-02-16T09:31:49.444Z,7.93
2023-02-16T09:34:19.080Z,9.10
2023-02-16T09:36:48.668Z,7.70
2023-02-16T09:39:17.521Z,8.23
2023-02-16T09:42:01.041Z,8.20
2023-02-16T09:44:40.952Z,7.73
2023-02-16T09:47:18.495Z,9.10
2023-02-16T09:49:47.107Z,8.33
2023-02-16T09:52:24.243Z,7.93
2023-02-16T09:54:54.808Z,9.00
2023-02-16T09:57:34.328Z,8.57
2023-02-16T10:00:07.885Z,8.60
2023-02-16T10:02:46.759Z,7.63
2023-02-16T10:05:21.298Z,7.93
2023-02-16T10:08:00.008Z,9.33
2023-02-16T10:10:34.061Z,8.10
2023-02-16T10:13:09.303Z,8.20
2023-02-16T10:15:41.182Z,7.47
2023-02-16T10:18:19.019Z,7.60
2023-02-16T10:20:49.964Z,8.10
2023-02-16T10:23:32.426Z,7.23
2023-02-16T10:26:07.103Z,7.20
2023-02-16T10:28:43.382Z,7.57
2023-02-16T10:31:15.479Z,7.43
2023-02-16T10:33:46.113Z,6.77
2023-02-16T10:36:26.827Z,7.30
2023-02-16T10:39:03.572Z,6.50
2023-02-16T10:41:36.988Z,6.50
2023-02-16T10:44:14.271Z,7.87
2023-02-16T10:46:46.356Z,7.20
2023-02-16T10:49:16.215Z,6.30
2023-02-16T10:51:49.905Z,7.23
2023-02-16T10:54:23.501Z,6.43
2023-02-16T10:56:57.200Z,7.40
2023-02-16T10:59:27.590Z,6.90
2023-02-16T11:01:59.598Z,6.50
2023-02-16T11:04:33.106Z,6.70
2023-02-16T11:07:06.586Z,5.60
2023-02-16T11:09:35.997Z,6.67
2023-02-16T11:12:15.443Z,5.90
2023-02-16T11:15:06.937Z,6.40
2023-02-16T11:17:50.530Z,6.03
2023-02-16T11:20:28.583Z,5.90
2023-02-16T11:23:15.899Z,6.40
2023-02-16T11:25:55.615Z,6.30
2023-02-16T11:28:28.767Z,5.90
2023-02-16T11:31:12.381Z,6.43
2023-02-16T11:33:41.772Z,5.63
2023-02-16T11:36:26.141Z,6.20
2023-02-16T11:39:00.503Z,5.47
2023-02-16T11:41:30.540Z,5.93
2023-02-16T11:43:59.312Z,5.47
2023-02-16T11:46:27.653Z,5.80
2023-02-16T11:48:56.122Z,5.93
2023-02-16T11:51:33.856Z,5.73
2023-02-16T11:54:05.234Z,5.60
2023-02-16T11:56:36.392Z,5.03
2023-02-16T11:59:16.135Z,5.33
2023-02-16T12:02:25.619Z,5.87
2023-02-16T12:05:11.127Z,5.73
2023-02-16T12:07:46.750Z,5.23
2023-02-16T12:10:21.130Z,5.20
2023-02-16T12:12:59.487Z,5.50
2023-02-16T12:15:34.170Z,5.63
2023-02-16T12:18:23.845Z,5.07
2023-02-16T12:21:00.034Z,5.00
2023-02-16T12:23:38.248Z,4.80
2023-02-16T12:26:38.867Z,4.43
2023-02-16T12:29:21.454Z,5.27
2023-02-16T12:32:03.277Z,5.10
2023-02-16T12:34:43.492Z,5.30
2023-02-16T12:37:22.419Z,4.30
2023-02-16T12:39:59.532Z,4.30
2023-02-16T12:42:49.540Z,4.60
2023-02-16T12:45:22.430Z,5.10
2023-02-16T12:47:55.516Z,4.80
2023-02-16T12:50:25.925Z,4.50
2023-02-16T12:52:56.865Z,4.37
2023-02-16T12:55:29.176Z,4.83
2023-02-16T12:58:04.669Z,4.10
2023-02-16T13:00:46.323Z,4.87
2023-02-16T13:03:27.940Z,4.80
2023-02-16T13:06:08.199Z,4.50
2023-02-16T13:08:42.541Z,4.17
2023-02-16T13:11:17.428Z,5.00
2023-02-16T13:13:47.948Z,4.50
2023-02-16T13:16:30.028Z,3.83
2023-02-16T13:18:58.943Z,3.77
2023-02-16T13:22:02.143Z,4.23
2023-02-16T13:24:44.429Z,4.03
2023-02-16T13:27:22.133Z,4.20
2023-02-16T13:30:25.971Z,3.80
2023-02-16T13:33:19.039Z,3.90
2023-02-16T13:36:21.305Z,4.23
2023-02-16T13:39:14.438Z,4.20
2023-02-16T13:42:27.776Z,3.77
2023-02-16T13:44:59.227Z,3.87
2023-02-16T13:47:31.261Z,3.80
2023-02-16T13:50:03.297Z,3.60
2023-02-16T13:52:34.921Z,3.30
2023-02-16T13:55:05.164Z,3.50
2023-02-16T13:58:05.771Z,3.33
2023-02-16T14:00:37.038Z,3.63
2023-02-16T14:03:12.375Z,3.37
2023-02-16T14:05:43.532Z,3.10
2023-02-16T14:08:20.666Z,3.57
2023-02-16T14:11:10.689Z,3.63
2023-02-16T14:13:48.543Z,3.30
2023-02-16T14:16:30.517Z,3.87
2023-02-16T14:19:00.839Z,3.43
2023-02-16T14:21:36.888Z,3.13
2023-02-16T14:24:07.529Z,3.50
2023-02-16T14:26:54.768Z,3.10
2023-02-16T14:29:25.903Z,3.27
2023-02-16T14:31:59.576Z,3.10
2023-02-16T14:34:31.610Z,2.80
2023-02-16T14:37:29.540Z,3.27
2023-02-16T14:40:17.141Z,2.37
2023-02-16T14:42:52.702Z,3.30
2023-02-16T14:45:54.697Z,3.00
2023-02-16T14:49:01.431Z,2.90
2023-02-16T14:51:45.144Z,2.70
2023-02-16T14:54:48.409Z,2.70
2023-02-16T14:57:19.698Z,2.80
2023-02-16T14:59:55.081Z,2.90
2023-02-16T15:02:28.992Z,3.10
2023-02-16T15:04:57.307Z,3.03
2023-02-16T15:07:28.702Z,2.83
2023-02-16T15:09:59.884Z,2.60
2023-02-16T15:12:33.400Z,2.63
2023-02-16T15:15:03.905Z,2.60
2023-02-16T15:17:35.601Z,3.00
2023-02-16T15:20:11.296Z,1.63
2023-02-16T15:22:44.319Z,3.00
2023-02-16T15:25:23.639Z,2.90
2023-02-16T15:27:59.165Z,2.70
2023-02-16T15:30:29.831Z,2.80
2023-02-16T15:32:59.981Z,2.70
2023-02-16T15:35:32.357Z,2.63
2023-02-16T15:38:09.011Z,2.83
2023-02-16T15:40:38.643Z,2.53
2023-02-16T15:43:20.430Z,2.53
2023-02-16T15:45:53.851Z,3.00
2023-02-16T15:48:25.924Z,2.80
2023-02-16T15:50:56.294Z,2.67
2023-02-16T15:53:34.403Z,2.13
2023-02-16T15:56:13.363Z,2.60
2023-02-16T15:58:42.330Z,2.60
2023-02-16T16:01:13.962Z,2.53
2023-02-16T16:03:46.386Z,2.63
2023-02-16T16:06:14.390Z,2.80
2023-02-16T16:08:42.570Z,2.83
2023-02-16T16:11:13.156Z,2.57
2023-02-16T16:13:42.465Z,2.70
2023-02-16T16:16:10.694Z,2.30
2023-02-16T16:18:46.215Z,2.20
2023-02-16T16:21:39.193Z,2.40
2023-02-16T16:24:09.034Z,2.40
2023-02-16T16:26:56.282Z,2.50
2023-02-16T16:29:32.794Z,2.53
2023-02-16T16:32:01.336Z,2.97
2023-02-16T16:34:37.906Z,2.40
2023-02-16T16:37:08.360Z,2.90
2023-02-16T16:39:40.448Z,2.70
2023-02-16T16:42:28.472Z,2.20
2023-02-16T16:45:08.402Z,2.10
2023-02-16T16:47:39.993Z,2.40
2023-02-16T16:50:30.245Z,2.40
2023-02-16T16:52:58.710Z,2.60
2023-02-16T16:55:30.475Z,2.40
2023-02-16T16:58:01.421Z,2.67
2023-02-16T17:00:34.165Z,2.93
2023-02-16T17:03:02.324Z,2.90
2023-02-16T17:05:30.382Z,2.90
2023-02-16T17:07:58.401Z,2.50
2023-02-16T17:10:26.604Z,3.53
2023-02-16T17:12:57.770Z,3.10
2023-02-16T17:15:35.048Z,3.03
2023-02-16T17:18:03.326Z,3.27
2023-02-16T17:20:31.294Z,3.00
2023-02-16T17:23:04.340Z,3.10
2023-02-16T17:25:34.280Z,3.13
2023-02-16T17:28:02.384Z,2.80
2023-02-16T17:30:32.262Z,3.30
2023-02-16T17:33:00.420Z,3.60
2023-02-16T17:35:28.823Z,3.13
2023-02-16T17:37:56.781Z,2.83
2023-02-16T17:40:25.643Z,2.80
2023-02-16T17:42:53.547Z,3.37
2023-02-16T17:45:23.079Z,3.20
2023-02-16T17:47:53.830Z,2.87
2023-02-16T17:50:22.458Z,3.60
2023-02-16T17:52:57.007Z,3.40
2023-02-16T17:55:25.391Z,4.10
2023-02-16T17:57:53.303Z,3.30
2023-02-16T18:00:23.398Z,3.20
2023-02-16T18:02:52.682Z,3.60
2023-02-16T18:05:20.644Z,3.10
2023-02-16T18:07:48.546Z,4.13
2023-02-16T18:10:32.902Z,3.80
2023-02-16T18:13:00.947Z,3.50
2023-02-16T18:15:29.186Z,3.13
2023-02-16T18:17:58.567Z,3.57
2023-02-16T18:20:27.616Z,3.67
2023-02-16T18:22:55.544Z,3.20
2023-02-16T18:25:24.172Z,3.37
2023-02-16T18:27:52.105Z,3.23
2023-02-16T18:30:20.388Z,3.10
2023-02-16T18:32:48.352Z,4.10
2023-02-16T18:35:18.143Z,3.20
2023-02-16T18:37:46.688Z,3.40
2023-02-16T18:40:21.547Z,3.10
2023-02-16T18:42:49.465Z,3.23
2023-02-16T18:45:17.814Z,3.53
2023-02-16T18:47:45.983Z,3.47
2023-02-16T18:50:14.540Z,3.33
2023-02-16T18:52:44.884Z,3.77
2023-02-16T18:55:13.374Z,3.10
2023-02-16T18:57:41.305Z,3.60
2023-02-16T19:00:11.656Z,3.30
2023-02-16T19:02:40.932Z,3.80
2023-02-16T19:05:09.798Z,4.07
2023-02-16T19:07:38.915Z,3.67
2023-02-16T19:10:10.872Z,3.07
2023-02-16T19:12:39.150Z,2.90
2023-02-16T19:15:08.245Z,4.07
2023-02-16T19:17:38.514Z,3.20
2023-02-16T19:20:08.025Z,3.60
2023-02-16T19:22:37.188Z,3.50
2023-02-16T19:25:05.773Z,3.70
2023-02-16T19:27:35.622Z,3.07
2023-02-16T19:30:03.636Z,4.10
2023-02-16T19:32:31.625Z,3.40
2023-02-16T19:34:59.576Z,3.40
2023-02-16T19:37:27.555Z,3.70
2023-02-16T19:39:55.518Z,3.53
2023-02-16T19:42:23.477Z,3.57
2023-02-16T19:45:06.985Z,3.87
2023-02-16T19:47:34.956Z,3.43
2023-02-16T19:50:03.067Z,3.60
2023-02-16T19:52:31.124Z,3.47
2023-02-16T19:54:59.034Z,4.23
2023-02-16T19:57:26.951Z,4.20
2023-02-16T19:59:55.054Z,4.03
2023-02-16T20:02:24.469Z,4.50
2023-02-16T20:04:54.923Z,3.70
2023-02-16T20:07:22.848Z,4.07
2023-02-16T20:09:50.788Z,3.90
2023-02-16T20:12:19.646Z,3.70
2023-02-16T20:14:50.405Z,3.93
2023-02-16T20:17:18.342Z,3.73
2023-02-16T20:19:47.647Z,3.50
2023-02-16T20:22:16.773Z,4.57
2023-02-16T20:24:44.844Z,3.97
2023-02-16T20:27:17.406Z,3.90
2023-02-16T20:29:45.348Z,4.53
2023-02-16T20:32:14.594Z,4.20
2023-02-16T20:34:42.629Z,4.60
2023-02-16T20:37:11.880Z,4.03
2023-02-16T20:39:39.915Z,4.00
2023-02-16T20:42:08.417Z,3.70
2023-02-16T20:44:56.389Z,4.10
2023-02-16T20:47:24.361Z,4.00
2023-02-16T20:49:52.653Z,4.07
2023-02-16T20:52:21.997Z,3.80
2023-02-16T20:54:49.930Z,3.97
2023-02-16T20:57:26.447Z,4.40
2023-02-16T20:59:55.716Z,4.30
2023-02-16T21:02:23.860Z,3.87
2023-02-16T21:04:51.810Z,4.40
2023-02-16T21:07:21.061Z,4.07
2023-02-16T21:09:49.035Z,3.60
2023-02-16T21:12:17.000Z,4.03
2023-02-16T21:14:44.941Z,3.93
2023-02-16T21:17:12.882Z,3.70
2023-02-16T21:19:40.926Z,4.20
2023-02-16T21:22:08.888Z,4.33
2023-02-16T21:24:40.690Z,4.47
2023-02-16T21:27:08.778Z,3.70
2023-02-16T21:29:36.738Z,4.10
2023-02-16T21:32:05.441Z,3.97
2023-02-16T21:34:33.393Z,4.00
2023-02-16T21:37:01.433Z,4.40
2023-02-16T21:39:43.328Z,4.10
2023-02-16T21:42:13.067Z,4.30
2023-02-16T21:44:44.032Z,3.33
2023-02-16T21:47:30.917Z,4.37
2023-02-16T21:49:59.026Z,4.03
2023-02-16T21:52:27.819Z,4.67
2023-02-16T21:55:13.103Z,4.20
2023-02-16T21:57:42.387Z,3.70
2023-02-16T22:00:15.513Z,4.10
2023-02-16T22:02:43.419Z,3.73
2023-02-16T22:05:13.549Z,3.73
2023-02-16T22:07:41.540Z,3.57
2023-02-16T22:10:10.650Z,3.60
2023-02-16T22:12:38.921Z,3.90
2023-02-16T22:15:08.682Z,4.20
2023-02-16T22:17:36.703Z,4.00
2023-02-16T22:20:05.131Z,3.70
2023-02-16T22:22:33.039Z,4.00
2023-02-16T22:25:01.010Z,3.50
2023-02-16T22:27:28.976Z,3.53
2023-02-16T22:29:56.968Z,3.50
2023-02-16T22:32:26.453Z,4.10
2023-02-16T22:34:55.431Z,3.80
2023-02-16T22:37:23.596Z,3.73
2023-02-16T22:39:55.080Z,3.80
2023-02-16T22:42:23.459Z,4.03
2023-02-16T22:44:56.612Z,4.03
2023-02-16T22:47:25.901Z,4.20
2023-02-16T22:49:53.817Z,3.77
2023-02-16T22:52:21.743Z,3.50
2023-02-16T22:54:51.444Z,3.90
2023-02-16T22:57:19.747Z,3.40
2023-02-16T22:59:47.659Z,3.80
2023-02-16T23:02:15.708Z,3.87
2023-02-16T23:04:44.984Z,3.77
2023-02-16T23:07:13.109Z,3.63
2023-02-16T23:09:41.046Z,3.67
2023-02-16T23:12:08.932Z,3.67
2023-02-16T23:14:38.195Z,3.57
2023-02-16T23:17:06.147Z,3.73
2023-02-16T23:19:34.235Z,4.00
2023-02-16T23:22:03.499Z,3.17
2023-02-16T23:24:31.438Z,4.10
2023-02-16T23:26:59.739Z,3.77
2023-02-16T23:29:27.961Z,3.47
2023-02-16T23:31:55.905Z,3.70
2023-02-16T23:34:23.962Z,3.60
2023-02-16T23:36:51.916Z,3.50
2023-02-16T23:39:21.192Z,3.13
2023-02-16T23:41:49.110Z,3.43
2023-02-16T23:44:17.264Z,3.20
2023-02-16T23:46:45.246Z,3.27
2023-02-16T23:49:13.198Z,3.40
2023-02-16T23:51:41.127Z,3.60
2023-02-16T23:54:11.446Z,3.40
2023-02-16T23:56:41.056Z,3.33
2023-02-16T23:59:09.013Z,2.93
